This is the latest recevied weather packets stored in our database for station/object K4KMJ. If no packets are shown the sender has not sent any weather packets the latest 10 day(s).
| Time | Temp. | Humidity | Pressure | Rain* | Wind** | Luminosity | Snow |
|---|---|---|---|---|---|---|---|
| 1777727597 | 25° C | 96% | 1012.8 hPa | 0 mm | - | 156 W/m² | - |
| 1777727294 | 25° C | 97% | 1012.3 hPa | 0 mm | - | 212 W/m² | - |
| 1777726992 | 24.44° C | 97% | 1012.6 hPa | 0 mm | - | 208 W/m² | - |
| 1777726689 | 25° C | 98% | 1012.7 hPa | 0 mm | - | 238 W/m² | - |
| 1777726386 | 25° C | 98% | 1012.6 hPa | 0 mm | - | 238 W/m² | - |
| 1777726083 | 25° C | 99% | 1012.6 hPa | 0 mm | - | 233 W/m² | - |
| 1777725779 | 24.44° C | 99% | 1012.5 hPa | 0 mm | - | 233 W/m² | - |
| 1777725477 | 24.44° C | 99% | 1012.6 hPa | 0 mm | - | 234 W/m² | - |
| 1777725174 | 23.89° C | 99% | 1012.6 hPa | 0 mm | - | 226 W/m² | - |
| 1777724871 | 23.33° C | 99% | 1012.5 hPa | 0 mm | - | 193 W/m² | - |
| 1777724567 | 22.78° C | 99% | 1012.8 hPa | 0 mm | - | 129 W/m² | - |
| 1777724266 | 22.78° C | 99% | 1012.4 hPa | 0 mm | - | 110 W/m² | - |
| 1777723963 | 22.78° C | 99% | 1012.4 hPa | 0 mm | - | 133 W/m² | - |
| 1777723659 | 22.78° C | 99% | 1012.5 hPa | 0 mm | - | 173 W/m² | - |
| 1777723356 | 22.22° C | 99% | 1012.4 hPa | 0 mm | - | 106 W/m² | - |
| 1777723054 | 21.67° C | 99% | 1012.4 hPa | 0 mm | - | 90 W/m² | - |
| 1777722751 | 21.67° C | 99% | 1012.2 hPa | 0 mm | - | 94 W/m² | - |
| 1777722446 | 21.11° C | 99% | 1012.5 hPa | 0 mm | - | 69 W/m² | - |
| 1777722144 | 21.11° C | 99% | 1012.2 hPa | 0 mm | - | 50 W/m² | - |
| 1777721841 | 21.11° C | 99% | 1012.3 hPa | 0 mm | - | 44 W/m² | - |
| 1777721539 | 21.11° C | 99% | 1012.3 hPa | 0 mm | - | 39 W/m² | - |
| 1777721237 | 21.11° C | 99% | 1012.2 hPa | 0 mm | - | 35 W/m² | - |
| 1777720934 | 21.11° C | 99% | 1012 hPa | 0 mm | - | 34 W/m² | - |
| 1777720631 | 20.56° C | 99% | 1012 hPa | 0 mm | - | 30 W/m² | - |
| 1777720329 | 20.56° C | 99% | 1011.8 hPa | 0 mm | - | 22 W/m² | - |
* Rain latest hour (hover to see other rain measurements)
** Current wind speed in m/s (hover to see current wind gust speed)